sensor_id;sensor_type;location;lat;lon;timestamp;P1;durP1;ratioP1;P2;durP2;ratioP2
63965;SDS011;50151;52.030;5.350;2023-05-10T00:01:25;26.92;;;18.85;;
63965;SDS011;50151;52.030;5.350;2023-05-10T00:03:51;27.52;;;19.17;;
63965;SDS011;50151;52.030;5.350;2023-05-10T00:06:18;29.85;;;20.38;;
63965;SDS011;50151;52.030;5.350;2023-05-10T00:08:45;26.27;;;18.70;;
63965;SDS011;50151;52.030;5.350;2023-05-10T00:11:12;28.15;;;19.20;;
63965;SDS011;50151;52.030;5.350;2023-05-10T00:13:38;28.60;;;19.05;;
63965;SDS011;50151;52.030;5.350;2023-05-10T00:16:05;29.60;;;19.17;;
63965;SDS011;50151;52.030;5.350;2023-05-10T00:18:32;27.50;;;19.48;;
63965;SDS011;50151;52.030;5.350;2023-05-10T00:20:59;29.27;;;20.05;;
63965;SDS011;50151;52.030;5.350;2023-05-10T00:23:25;30.15;;;20.80;;
63965;SDS011;50151;52.030;5.350;2023-05-10T00:25:52;31.63;;;20.30;;
63965;SDS011;50151;52.030;5.350;2023-05-10T00:28:19;30.42;;;20.55;;
63965;SDS011;50151;52.030;5.350;2023-05-10T00:30:45;32.60;;;21.58;;
63965;SDS011;50151;52.030;5.350;2023-05-10T00:33:12;29.30;;;19.30;;
63965;SDS011;50151;52.030;5.350;2023-05-10T00:35:39;30.90;;;20.10;;
63965;SDS011;50151;52.030;5.350;2023-05-10T00:38:05;29.95;;;19.02;;
63965;SDS011;50151;52.030;5.350;2023-05-10T00:40:32;29.90;;;19.50;;
63965;SDS011;50151;52.030;5.350;2023-05-10T00:43:01;38.15;;;19.80;;
63965;SDS011;50151;52.030;5.350;2023-05-10T00:45:30;34.20;;;20.17;;
63965;SDS011;50151;52.030;5.350;2023-05-10T00:47:59;28.73;;;18.88;;
63965;SDS011;50151;52.030;5.350;2023-05-10T00:50:28;31.65;;;19.33;;
63965;SDS011;50151;52.030;5.350;2023-05-10T00:52:55;29.88;;;18.52;;
63965;SDS011;50151;52.030;5.350;2023-05-10T00:55:22;30.83;;;20.13;;
63965;SDS011;50151;52.030;5.350;2023-05-10T00:57:49;27.00;;;18.42;;
63965;SDS011;50151;52.030;5.350;2023-05-10T01:00:16;30.88;;;19.73;;
63965;SDS011;50151;52.030;5.350;2023-05-10T01:02:44;31.40;;;19.52;;
63965;SDS011;50151;52.030;5.350;2023-05-10T01:05:12;33.95;;;19.10;;
63965;SDS011;50151;52.030;5.350;2023-05-10T01:07:39;29.92;;;19.45;;
63965;SDS011;50151;52.030;5.350;2023-05-10T01:10:07;30.55;;;19.17;;
63965;SDS011;50151;52.030;5.350;2023-05-10T01:12:35;32.78;;;18.80;;
63965;SDS011;50151;52.030;5.350;2023-05-10T01:15:05;30.77;;;19.42;;
63965;SDS011;50151;52.030;5.350;2023-05-10T01:17:33;31.08;;;18.88;;
63965;SDS011;50151;52.030;5.350;2023-05-10T01:20:02;29.85;;;19.30;;
63965;SDS011;50151;52.030;5.350;2023-05-10T01:25:04;33.97;;;19.83;;
63965;SDS011;50151;52.030;5.350;2023-05-10T01:33:39;36.03;;;19.97;;
63965;SDS011;50151;52.030;5.350;2023-05-10T01:36:32;35.28;;;18.85;;
63965;SDS011;50151;52.030;5.350;2023-05-10T01:44:28;42.05;;;23.30;;
63965;SDS011;50151;52.030;5.350;2023-05-10T01:47:04;40.15;;;22.67;;
63965;SDS011;50151;52.030;5.350;2023-05-10T01:49:43;40.55;;;23.02;;
63965;SDS011;50151;52.030;5.350;2023-05-10T01:52:14;42.35;;;23.75;;
63965;SDS011;50151;52.030;5.350;2023-05-10T01:54:49;41.80;;;23.77;;
63965;SDS011;50151;52.030;5.350;2023-05-10T01:57:26;39.97;;;23.65;;
63965;SDS011;50151;52.030;5.350;2023-05-10T01:59:57;41.05;;;23.50;;
63965;SDS011;50151;52.030;5.350;2023-05-10T02:02:26;42.22;;;22.67;;
63965;SDS011;50151;52.030;5.350;2023-05-10T02:04:54;38.45;;;23.27;;
63965;SDS011;50151;52.030;5.350;2023-05-10T02:07:23;39.50;;;24.05;;
63965;SDS011;50151;52.030;5.350;2023-05-10T02:09:50;43.90;;;24.40;;
63965;SDS011;50151;52.030;5.350;2023-05-10T02:12:17;37.58;;;22.27;;
63965;SDS011;50151;52.030;5.350;2023-05-10T02:14:45;44.85;;;24.80;;
63965;SDS011;50151;52.030;5.350;2023-05-10T02:17:13;45.22;;;23.38;;
63965;SDS011;50151;52.030;5.350;2023-05-10T02:19:41;47.33;;;25.05;;
63965;SDS011;50151;52.030;5.350;2023-05-10T02:22:09;41.10;;;24.45;;
63965;SDS011;50151;52.030;5.350;2023-05-10T02:24:36;45.20;;;24.83;;
63965;SDS011;50151;52.030;5.350;2023-05-10T02:27:04;41.08;;;24.65;;
63965;SDS011;50151;52.030;5.350;2023-05-10T02:29:32;47.00;;;25.45;;
63965;SDS011;50151;52.030;5.350;2023-05-10T02:31:59;43.85;;;22.98;;
63965;SDS011;50151;52.030;5.350;2023-05-10T02:34:27;47.40;;;25.58;;
63965;SDS011;50151;52.030;5.350;2023-05-10T02:36:54;50.80;;;27.98;;
63965;SDS011;50151;52.030;5.350;2023-05-10T02:39:22;53.47;;;27.40;;
63965;SDS011;50151;52.030;5.350;2023-05-10T02:41:50;48.47;;;26.63;;
63965;SDS011;50151;52.030;5.350;2023-05-10T02:44:19;51.88;;;28.23;;
63965;SDS011;50151;52.030;5.350;2023-05-10T02:46:46;51.45;;;27.48;;
63965;SDS011;50151;52.030;5.350;2023-05-10T02:49:14;44.00;;;23.05;;
63965;SDS011;50151;52.030;5.350;2023-05-10T02:51:43;53.72;;;27.60;;
63965;SDS011;50151;52.030;5.350;2023-05-10T02:54:15;47.97;;;26.55;;
63965;SDS011;50151;52.030;5.350;2023-05-10T02:56:47;54.65;;;27.75;;
63965;SDS011;50151;52.030;5.350;2023-05-10T02:59:22;46.97;;;27.13;;
63965;SDS011;50151;52.030;5.350;2023-05-10T03:01:49;50.97;;;27.88;;
63965;SDS011;50151;52.030;5.350;2023-05-10T03:04:16;48.78;;;27.60;;
63965;SDS011;50151;52.030;5.350;2023-05-10T03:06:42;48.17;;;26.65;;
63965;SDS011;50151;52.030;5.350;2023-05-10T03:09:09;47.25;;;26.52;;
63965;SDS011;50151;52.030;5.350;2023-05-10T03:17:14;56.70;;;28.40;;
63965;SDS011;50151;52.030;5.350;2023-05-10T03:20:04;50.72;;;25.35;;
63965;SDS011;50151;52.030;5.350;2023-05-10T03:22:37;49.58;;;25.27;;
63965;SDS011;50151;52.030;5.350;2023-05-10T03:25:07;52.83;;;26.00;;
63965;SDS011;50151;52.030;5.350;2023-05-10T03:27:39;58.72;;;27.08;;
63965;SDS011;50151;52.030;5.350;2023-05-10T03:30:08;48.78;;;25.77;;
63965;SDS011;50151;52.030;5.350;2023-05-10T03:32:36;50.80;;;26.50;;
63965;SDS011;50151;52.030;5.350;2023-05-10T03:35:09;51.85;;;24.52;;
63965;SDS011;50151;52.030;5.350;2023-05-10T03:37:37;47.75;;;24.80;;
63965;SDS011;50151;52.030;5.350;2023-05-10T03:40:04;50.33;;;25.13;;
63965;SDS011;50151;52.030;5.350;2023-05-10T03:42:32;44.08;;;25.60;;
63965;SDS011;50151;52.030;5.350;2023-05-10T03:44:58;51.47;;;25.35;;
63965;SDS011;50151;52.030;5.350;2023-05-10T03:47:25;48.70;;;23.95;;
63965;SDS011;50151;52.030;5.350;2023-05-10T03:49:52;42.80;;;22.38;;
63965;SDS011;50151;52.030;5.350;2023-05-10T03:52:20;47.25;;;24.70;;
63965;SDS011;50151;52.030;5.350;2023-05-10T03:54:47;45.70;;;23.23;;
63965;SDS011;50151;52.030;5.350;2023-05-10T03:57:14;50.88;;;24.10;;
63965;SDS011;50151;52.030;5.350;2023-05-10T03:59:40;42.78;;;21.55;;
63965;SDS011;50151;52.030;5.350;2023-05-10T04:02:07;53.70;;;24.88;;
63965;SDS011;50151;52.030;5.350;2023-05-10T04:04:34;55.60;;;22.92;;
63965;SDS011;50151;52.030;5.350;2023-05-10T04:07:00;51.42;;;23.83;;
63965;SDS011;50151;52.030;5.350;2023-05-10T04:09:27;45.53;;;22.70;;
63965;SDS011;50151;52.030;5.350;2023-05-10T04:11:54;43.10;;;21.80;;
63965;SDS011;50151;52.030;5.350;2023-05-10T04:14:20;48.38;;;22.73;;
63965;SDS011;50151;52.030;5.350;2023-05-10T04:16:47;46.90;;;22.88;;
63965;SDS011;50151;52.030;5.350;2023-05-10T04:19:14;43.53;;;22.42;;
63965;SDS011;50151;52.030;5.350;2023-05-10T04:21:40;46.28;;;23.65;;
63965;SDS011;50151;52.030;5.350;2023-05-10T04:24:07;39.55;;;21.65;;
63965;SDS011;50151;52.030;5.350;2023-05-10T04:26:34;45.83;;;23.70;;
63965;SDS011;50151;52.030;5.350;2023-05-10T04:29:01;49.80;;;23.13;;
63965;SDS011;50151;52.030;5.350;2023-05-10T04:31:28;49.78;;;24.30;;
63965;SDS011;50151;52.030;5.350;2023-05-10T04:33:55;52.25;;;25.30;;
63965;SDS011;50151;52.030;5.350;2023-05-10T04:36:21;47.75;;;23.92;;
63965;SDS011;50151;52.030;5.350;2023-05-10T04:38:48;54.15;;;26.10;;
63965;SDS011;50151;52.030;5.350;2023-05-10T04:41:15;53.10;;;25.95;;
63965;SDS011;50151;52.030;5.350;2023-05-10T04:43:41;55.40;;;25.02;;
63965;SDS011;50151;52.030;5.350;2023-05-10T04:46:08;57.92;;;25.33;;
63965;SDS011;50151;52.030;5.350;2023-05-10T04:48:35;55.22;;;25.35;;
63965;SDS011;50151;52.030;5.350;2023-05-10T04:51:02;56.92;;;24.75;;
63965;SDS011;50151;52.030;5.350;2023-05-10T04:53:30;56.63;;;25.42;;
63965;SDS011;50151;52.030;5.350;2023-05-10T04:55:56;58.25;;;26.52;;
63965;SDS011;50151;52.030;5.350;2023-05-10T04:58:23;52.47;;;26.42;;
63965;SDS011;50151;52.030;5.350;2023-05-10T05:00:51;59.78;;;25.75;;
63965;SDS011;50151;52.030;5.350;2023-05-10T05:03:17;61.10;;;26.10;;
63965;SDS011;50151;52.030;5.350;2023-05-10T05:05:45;55.75;;;25.20;;
63965;SDS011;50151;52.030;5.350;2023-05-10T05:08:11;61.53;;;25.90;;
63965;SDS011;50151;52.030;5.350;2023-05-10T05:10:39;61.50;;;26.25;;
63965;SDS011;50151;52.030;5.350;2023-05-10T05:13:05;60.55;;;25.05;;
63965;SDS011;50151;52.030;5.350;2023-05-10T05:15:32;59.97;;;25.77;;
63965;SDS011;50151;52.030;5.350;2023-05-10T05:17:59;55.53;;;25.20;;
63965;SDS011;50151;52.030;5.350;2023-05-10T05:20:26;56.53;;;23.98;;
63965;SDS011;50151;52.030;5.350;2023-05-10T05:22:53;63.53;;;25.75;;
63965;SDS011;50151;52.030;5.350;2023-05-10T05:25:19;56.60;;;25.33;;
63965;SDS011;50151;52.030;5.350;2023-05-10T05:27:46;55.38;;;26.45;;
63965;SDS011;50151;52.030;5.350;2023-05-10T05:30:13;58.90;;;26.75;;
63965;SDS011;50151;52.030;5.350;2023-05-10T05:32:39;62.30;;;26.75;;
63965;SDS011;50151;52.030;5.350;2023-05-10T05:35:06;60.75;;;27.02;;
63965;SDS011;50151;52.030;5.350;2023-05-10T05:37:33;64.03;;;27.60;;
63965;SDS011;50151;52.030;5.350;2023-05-10T05:40:00;62.83;;;28.05;;
63965;SDS011;50151;52.030;5.350;2023-05-10T05:42:27;63.90;;;28.88;;
63965;SDS011;50151;52.030;5.350;2023-05-10T05:44:54;67.32;;;27.95;;
63965;SDS011;50151;52.030;5.350;2023-05-10T05:47:21;68.28;;;29.40;;
63965;SDS011;50151;52.030;5.350;2023-05-10T05:49:47;56.55;;;27.17;;
63965;SDS011;50151;52.030;5.350;2023-05-10T05:52:14;60.20;;;29.00;;
63965;SDS011;50151;52.030;5.350;2023-05-10T05:54:41;60.30;;;29.02;;
63965;SDS011;50151;52.030;5.350;2023-05-10T05:57:07;48.70;;;23.58;;
63965;SDS011;50151;52.030;5.350;2023-05-10T05:59:34;53.92;;;26.98;;
63965;SDS011;50151;52.030;5.350;2023-05-10T06:02:01;62.60;;;26.77;;
63965;SDS011;50151;52.030;5.350;2023-05-10T06:04:28;50.92;;;26.33;;
63965;SDS011;50151;52.030;5.350;2023-05-10T06:06:55;50.65;;;26.88;;
63965;SDS011;50151;52.030;5.350;2023-05-10T06:09:22;52.60;;;26.42;;
63965;SDS011;50151;52.030;5.350;2023-05-10T06:11:50;47.20;;;25.05;;
63965;SDS011;50151;52.030;5.350;2023-05-10T06:14:17;47.55;;;22.33;;
63965;SDS011;50151;52.030;5.350;2023-05-10T06:16:46;50.15;;;25.30;;
63965;SDS011;50151;52.030;5.350;2023-05-10T06:19:12;50.33;;;24.73;;
63965;SDS011;50151;52.030;5.350;2023-05-10T06:21:39;46.08;;;24.73;;
63965;SDS011;50151;52.030;5.350;2023-05-10T06:24:06;50.50;;;26.17;;
63965;SDS011;50151;52.030;5.350;2023-05-10T06:26:33;44.85;;;23.52;;
63965;SDS011;50151;52.030;5.350;2023-05-10T06:28:59;50.10;;;25.13;;
63965;SDS011;50151;52.030;5.350;2023-05-10T06:31:27;46.15;;;25.27;;
63965;SDS011;50151;52.030;5.350;2023-05-10T06:33:54;48.58;;;23.92;;
63965;SDS011;50151;52.030;5.350;2023-05-10T06:36:22;49.85;;;25.08;;
63965;SDS011;50151;52.030;5.350;2023-05-10T06:38:50;47.05;;;24.73;;
63965;SDS011;50151;52.030;5.350;2023-05-10T06:41:17;49.92;;;25.75;;
63965;SDS011;50151;52.030;5.350;2023-05-10T06:43:44;45.72;;;24.25;;
63965;SDS011;50151;52.030;5.350;2023-05-10T06:46:10;45.92;;;24.35;;
63965;SDS011;50151;52.030;5.350;2023-05-10T06:48:37;42.03;;;23.02;;
63965;SDS011;50151;52.030;5.350;2023-05-10T06:51:04;43.53;;;23.88;;
63965;SDS011;50151;52.030;5.350;2023-05-10T06:53:30;48.17;;;24.98;;
63965;SDS011;50151;52.030;5.350;2023-05-10T06:55:57;39.10;;;22.80;;
63965;SDS011;50151;52.030;5.350;2023-05-10T06:58:24;40.20;;;21.13;;
63965;SDS011;50151;52.030;5.350;2023-05-10T07:00:50;35.55;;;19.98;;
63965;SDS011;50151;52.030;5.350;2023-05-10T07:03:17;38.10;;;19.67;;
63965;SDS011;50151;52.030;5.350;2023-05-10T07:05:44;36.80;;;18.67;;
63965;SDS011;50151;52.030;5.350;2023-05-10T07:08:13;35.40;;;18.92;;
63965;SDS011;50151;52.030;5.350;2023-05-10T07:10:39;33.50;;;19.42;;
63965;SDS011;50151;52.030;5.350;2023-05-10T07:13:06;26.00;;;14.75;;
63965;SDS011;50151;52.030;5.350;2023-05-10T07:15:33;33.35;;;17.13;;
63965;SDS011;50151;52.030;5.350;2023-05-10T07:17:59;23.45;;;13.18;;
63965;SDS011;50151;52.030;5.350;2023-05-10T07:20:26;22.23;;;12.15;;
63965;SDS011;50151;52.030;5.350;2023-05-10T07:22:53;17.48;;;10.40;;
63965;SDS011;50151;52.030;5.350;2023-05-10T07:25:20;13.65;;;9.13;;
63965;SDS011;50151;52.030;5.350;2023-05-10T07:27:47;13.70;;;8.18;;
63965;SDS011;50151;52.030;5.350;2023-05-10T07:30:14;14.43;;;8.18;;
63965;SDS011;50151;52.030;5.350;2023-05-10T07:32:41;11.27;;;7.35;;
63965;SDS011;50151;52.030;5.350;2023-05-10T07:35:08;12.32;;;7.72;;
63965;SDS011;50151;52.030;5.350;2023-05-10T07:37:35;10.43;;;6.45;;
63965;SDS011;50151;52.030;5.350;2023-05-10T07:40:02;13.35;;;7.38;;
63965;SDS011;50151;52.030;5.350;2023-05-10T07:42:28;13.38;;;6.93;;
63965;SDS011;50151;52.030;5.350;2023-05-10T07:44:55;12.00;;;6.85;;
63965;SDS011;50151;52.030;5.350;2023-05-10T07:47:22;9.98;;;6.97;;
63965;SDS011;50151;52.030;5.350;2023-05-10T07:49:49;14.32;;;7.40;;
63965;SDS011;50151;52.030;5.350;2023-05-10T07:52:16;11.88;;;6.57;;
63965;SDS011;50151;52.030;5.350;2023-05-10T07:54:42;9.90;;;6.05;;
63965;SDS011;50151;52.030;5.350;2023-05-10T07:57:10;9.88;;;6.13;;
63965;SDS011;50151;52.030;5.350;2023-05-10T07:59:37;9.88;;;5.45;;
63965;SDS011;50151;52.030;5.350;2023-05-10T08:02:04;10.98;;;6.20;;
63965;SDS011;50151;52.030;5.350;2023-05-10T08:04:31;11.23;;;6.80;;
63965;SDS011;50151;52.030;5.350;2023-05-10T08:06:57;11.27;;;6.63;;
63965;SDS011;50151;52.030;5.350;2023-05-10T08:09:24;13.07;;;6.43;;
63965;SDS011;50151;52.030;5.350;2023-05-10T08:11:51;9.65;;;6.22;;
63965;SDS011;50151;52.030;5.350;2023-05-10T08:14:17;11.10;;;6.47;;
63965;SDS011;50151;52.030;5.350;2023-05-10T08:16:44;9.55;;;6.38;;
63965;SDS011;50151;52.030;5.350;2023-05-10T08:19:11;11.40;;;7.07;;
63965;SDS011;50151;52.030;5.350;2023-05-10T08:21:38;10.57;;;6.30;;
63965;SDS011;50151;52.030;5.350;2023-05-10T08:24:10;9.95;;;6.75;;
63965;SDS011;50151;52.030;5.350;2023-05-10T08:26:37;8.48;;;5.97;;
63965;SDS011;50151;52.030;5.350;2023-05-10T08:29:03;13.23;;;7.25;;
63965;SDS011;50151;52.030;5.350;2023-05-10T08:31:30;9.35;;;6.95;;
63965;SDS011;50151;52.030;5.350;2023-05-10T08:33:57;15.20;;;7.45;;
63965;SDS011;50151;52.030;5.350;2023-05-10T08:36:24;11.80;;;7.45;;
63965;SDS011;50151;52.030;5.350;2023-05-10T08:38:50;11.13;;;7.43;;
63965;SDS011;50151;52.030;5.350;2023-05-10T08:41:19;10.88;;;6.10;;
63965;SDS011;50151;52.030;5.350;2023-05-10T08:43:51;12.75;;;7.57;;
63965;SDS011;50151;52.030;5.350;2023-05-10T08:46:19;13.43;;;7.30;;
63965;SDS011;50151;52.030;5.350;2023-05-10T08:48:47;13.48;;;7.05;;
63965;SDS011;50151;52.030;5.350;2023-05-10T08:51:18;10.90;;;6.82;;
63965;SDS011;50151;52.030;5.350;2023-05-10T08:53:47;13.15;;;6.82;;
63965;SDS011;50151;52.030;5.350;2023-05-10T08:56:15;12.43;;;6.68;;
63965;SDS011;50151;52.030;5.350;2023-05-10T08:58:46;10.27;;;6.65;;
63965;SDS011;50151;52.030;5.350;2023-05-10T09:01:13;13.13;;;7.18;;
63965;SDS011;50151;52.030;5.350;2023-05-10T09:03:41;10.60;;;6.75;;
63965;SDS011;50151;52.030;5.350;2023-05-10T09:06:09;15.52;;;7.88;;
63965;SDS011;50151;52.030;5.350;2023-05-10T09:08:40;12.38;;;7.57;;
63965;SDS011;50151;52.030;5.350;2023-05-10T09:11:08;12.80;;;6.97;;
63965;SDS011;50151;52.030;5.350;2023-05-10T09:13:36;10.20;;;6.57;;
63965;SDS011;50151;52.030;5.350;2023-05-10T09:16:03;11.65;;;6.60;;
63965;SDS011;50151;52.030;5.350;2023-05-10T09:18:46;9.63;;;6.45;;
63965;SDS011;50151;52.030;5.350;2023-05-10T09:21:13;13.30;;;7.13;;
63965;SDS011;50151;52.030;5.350;2023-05-10T09:23:42;10.52;;;7.18;;
63965;SDS011;50151;52.030;5.350;2023-05-10T09:26:13;12.60;;;7.75;;
63965;SDS011;50151;52.030;5.350;2023-05-10T09:28:49;13.63;;;7.45;;
63965;SDS011;50151;52.030;5.350;2023-05-10T09:31:16;12.52;;;7.80;;
63965;SDS011;50151;52.030;5.350;2023-05-10T09:33:44;12.48;;;7.47;;
63965;SDS011;50151;52.030;5.350;2023-05-10T09:36:12;12.73;;;7.78;;
63965;SDS011;50151;52.030;5.350;2023-05-10T09:38:46;14.73;;;8.20;;
63965;SDS011;50151;52.030;5.350;2023-05-10T09:41:21;11.88;;;5.95;;
63965;SDS011;50151;52.030;5.350;2023-05-10T09:43:49;11.93;;;7.05;;
63965;SDS011;50151;52.030;5.350;2023-05-10T09:46:16;13.75;;;6.85;;
63965;SDS011;50151;52.030;5.350;2023-05-10T09:48:44;12.27;;;6.45;;
63965;SDS011;50151;52.030;5.350;2023-05-10T09:51:19;11.55;;;6.63;;
63965;SDS011;50151;52.030;5.350;2023-05-10T09:53:46;10.15;;;6.30;;
63965;SDS011;50151;52.030;5.350;2023-05-10T09:56:13;11.55;;;6.88;;
63965;SDS011;50151;52.030;5.350;2023-05-10T09:59:02;10.50;;;6.78;;
63965;SDS011;50151;52.030;5.350;2023-05-10T10:01:29;13.35;;;5.90;;
63965;SDS011;50151;52.030;5.350;2023-05-10T10:03:57;10.73;;;6.47;;
63965;SDS011;50151;52.030;5.350;2023-05-10T10:06:24;12.15;;;6.57;;
63965;SDS011;50151;52.030;5.350;2023-05-10T10:08:55;12.40;;;7.10;;
63965;SDS011;50151;52.030;5.350;2023-05-10T10:11:22;13.30;;;6.13;;
63965;SDS011;50151;52.030;5.350;2023-05-10T10:13:50;12.57;;;6.68;;
63965;SDS011;50151;52.030;5.350;2023-05-10T10:16:41;9.65;;;6.03;;
63965;SDS011;50151;52.030;5.350;2023-05-10T10:19:28;9.13;;;5.95;;
63965;SDS011;50151;52.030;5.350;2023-05-10T10:21:56;10.38;;;6.40;;
63965;SDS011;50151;52.030;5.350;2023-05-10T10:24:23;17.42;;;6.97;;
63965;SDS011;50151;52.030;5.350;2023-05-10T10:26:50;8.70;;;5.50;;
63965;SDS011;50151;52.030;5.350;2023-05-10T10:29:23;11.63;;;6.22;;
63965;SDS011;50151;52.030;5.350;2023-05-10T10:31:57;9.55;;;5.32;;
63965;SDS011;50151;52.030;5.350;2023-05-10T10:34:38;9.93;;;6.30;;
63965;SDS011;50151;52.030;5.350;2023-05-10T10:37:06;7.95;;;5.95;;
63965;SDS011;50151;52.030;5.350;2023-05-10T10:39:32;12.68;;;6.28;;
63965;SDS011;50151;52.030;5.350;2023-05-10T10:42:04;10.68;;;6.38;;
63965;SDS011;50151;52.030;5.350;2023-05-10T10:47:08;10.95;;;6.18;;
63965;SDS011;50151;52.030;5.350;2023-05-10T10:52:20;10.75;;;5.45;;
63965;SDS011;50151;52.030;5.350;2023-05-10T10:55:14;9.65;;;6.20;;
63965;SDS011;50151;52.030;5.350;2023-05-10T11:02:53;10.68;;;4.75;;
63965;SDS011;50151;52.030;5.350;2023-05-10T11:08:14;8.30;;;4.57;;
63965;SDS011;50151;52.030;5.350;2023-05-10T11:10:49;8.48;;;4.32;;
63965;SDS011;50151;52.030;5.350;2023-05-10T11:13:26;5.90;;;3.95;;
63965;SDS011;50151;52.030;5.350;2023-05-10T11:15:56;8.98;;;4.30;;
63965;SDS011;50151;52.030;5.350;2023-05-10T11:18:26;7.97;;;4.10;;
63965;SDS011;50151;52.030;5.350;2023-05-10T11:23:31;7.78;;;4.32;;
63965;SDS011;50151;52.030;5.350;2023-05-10T11:26:13;7.72;;;4.72;;
63965;SDS011;50151;52.030;5.350;2023-05-10T11:28:47;5.45;;;4.10;;
63965;SDS011;50151;52.030;5.350;2023-05-10T11:31:15;10.10;;;4.22;;
63965;SDS011;50151;52.030;5.350;2023-05-10T11:33:43;6.47;;;3.90;;
63965;SDS011;50151;52.030;5.350;2023-05-10T11:36:12;6.57;;;4.10;;
63965;SDS011;50151;52.030;5.350;2023-05-10T11:38:43;8.52;;;4.03;;
63965;SDS011;50151;52.030;5.350;2023-05-10T11:41:11;7.22;;;3.80;;
63965;SDS011;50151;52.030;5.350;2023-05-10T11:43:38;6.65;;;3.13;;
63965;SDS011;50151;52.030;5.350;2023-05-10T11:46:06;4.60;;;3.17;;
63965;SDS011;50151;52.030;5.350;2023-05-10T11:48:38;7.63;;;4.00;;
63965;SDS011;50151;52.030;5.350;2023-05-10T11:51:06;5.47;;;3.63;;
63965;SDS011;50151;52.030;5.350;2023-05-10T11:53:37;6.18;;;3.25;;
63965;SDS011;50151;52.030;5.350;2023-05-10T11:56:07;7.35;;;4.00;;
63965;SDS011;50151;52.030;5.350;2023-05-10T11:58:35;6.40;;;3.80;;
63965;SDS011;50151;52.030;5.350;2023-05-10T12:01:04;7.80;;;3.35;;
63965;SDS011;50151;52.030;5.350;2023-05-10T12:03:32;5.85;;;3.88;;
63965;SDS011;50151;52.030;5.350;2023-05-10T12:06:02;6.30;;;3.42;;
63965;SDS011;50151;52.030;5.350;2023-05-10T12:08:29;5.72;;;3.58;;
63965;SDS011;50151;52.030;5.350;2023-05-10T12:11:06;6.65;;;3.38;;
63965;SDS011;50151;52.030;5.350;2023-05-10T12:13:39;6.53;;;3.58;;
63965;SDS011;50151;52.030;5.350;2023-05-10T12:16:12;7.88;;;3.90;;
63965;SDS011;50151;52.030;5.350;2023-05-10T12:18:40;8.98;;;4.03;;
63965;SDS011;50151;52.030;5.350;2023-05-10T12:21:12;6.13;;;3.42;;
63965;SDS011;50151;52.030;5.350;2023-05-10T12:23:39;4.70;;;3.40;;
63965;SDS011;50151;52.030;5.350;2023-05-10T12:26:06;6.25;;;3.53;;
63965;SDS011;50151;52.030;5.350;2023-05-10T12:28:34;5.20;;;3.35;;
63965;SDS011;50151;52.030;5.350;2023-05-10T12:31:02;9.95;;;3.45;;
63965;SDS011;50151;52.030;5.350;2023-05-10T12:33:36;8.30;;;4.88;;
63965;SDS011;50151;52.030;5.350;2023-05-10T12:36:10;6.53;;;5.32;;
63965;SDS011;50151;52.030;5.350;2023-05-10T12:38:39;8.88;;;5.72;;
63965;SDS011;50151;52.030;5.350;2023-05-10T12:41:09;7.13;;;5.45;;
63965;SDS011;50151;52.030;5.350;2023-05-10T12:43:37;4.90;;;4.20;;
63965;SDS011;50151;52.030;5.350;2023-05-10T12:48:33;4.10;;;3.53;;
63965;SDS011;50151;52.030;5.350;2023-05-10T12:51:01;6.13;;;4.13;;
63965;SDS011;50151;52.030;5.350;2023-05-10T12:53:28;3.97;;;3.22;;
63965;SDS011;50151;52.030;5.350;2023-05-10T12:55:54;4.88;;;3.45;;
63965;SDS011;50151;52.030;5.350;2023-05-10T12:58:21;4.75;;;3.65;;
63965;SDS011;50151;52.030;5.350;2023-05-10T13:01:00;4.32;;;3.20;;
63965;SDS011;50151;52.030;5.350;2023-05-10T13:03:27;4.22;;;3.60;;
63965;SDS011;50151;52.030;5.350;2023-05-10T13:05:54;5.88;;;3.83;;
63965;SDS011;50151;52.030;5.350;2023-05-10T13:08:20;4.65;;;4.15;;
63965;SDS011;50151;52.030;5.350;2023-05-10T13:10:47;6.78;;;4.05;;
63965;SDS011;50151;52.030;5.350;2023-05-10T13:13:14;5.18;;;4.28;;
63965;SDS011;50151;52.030;5.350;2023-05-10T13:15:41;6.25;;;4.07;;
63965;SDS011;50151;52.030;5.350;2023-05-10T13:18:08;6.22;;;4.85;;
63965;SDS011;50151;52.030;5.350;2023-05-10T13:20:34;7.50;;;5.00;;
63965;SDS011;50151;52.030;5.350;2023-05-10T13:23:01;7.82;;;4.70;;
63965;SDS011;50151;52.030;5.350;2023-05-10T13:25:28;9.40;;;5.20;;
63965;SDS011;50151;52.030;5.350;2023-05-10T13:27:55;10.23;;;5.50;;
63965;SDS011;50151;52.030;5.350;2023-05-10T13:30:22;8.27;;;5.07;;
63965;SDS011;50151;52.030;5.350;2023-05-10T13:32:49;9.27;;;5.20;;
63965;SDS011;50151;52.030;5.350;2023-05-10T13:35:16;8.52;;;4.43;;
63965;SDS011;50151;52.030;5.350;2023-05-10T13:37:43;7.68;;;4.70;;
63965;SDS011;50151;52.030;5.350;2023-05-10T13:40:10;7.80;;;4.78;;
63965;SDS011;50151;52.030;5.350;2023-05-10T13:42:37;9.50;;;5.18;;
63965;SDS011;50151;52.030;5.350;2023-05-10T13:45:04;8.43;;;4.88;;
63965;SDS011;50151;52.030;5.350;2023-05-10T13:47:31;9.43;;;5.30;;
63965;SDS011;50151;52.030;5.350;2023-05-10T13:49:58;10.32;;;5.55;;
63965;SDS011;50151;52.030;5.350;2023-05-10T13:52:24;7.85;;;4.75;;
63965;SDS011;50151;52.030;5.350;2023-05-10T13:54:52;9.18;;;5.15;;
63965;SDS011;50151;52.030;5.350;2023-05-10T13:57:21;10.32;;;5.50;;
63965;SDS011;50151;52.030;5.350;2023-05-10T13:59:48;10.65;;;6.07;;
63965;SDS011;50151;52.030;5.350;2023-05-10T14:02:14;11.82;;;5.88;;
63965;SDS011;50151;52.030;5.350;2023-05-10T14:04:41;8.77;;;4.90;;
63965;SDS011;50151;52.030;5.350;2023-05-10T14:07:08;8.45;;;5.53;;
63965;SDS011;50151;52.030;5.350;2023-05-10T14:09:34;10.02;;;5.63;;
63965;SDS011;50151;52.030;5.350;2023-05-10T14:12:01;9.77;;;5.90;;
63965;SDS011;50151;52.030;5.350;2023-05-10T14:14:28;10.73;;;5.80;;
63965;SDS011;50151;52.030;5.350;2023-05-10T14:16:55;9.27;;;5.45;;
63965;SDS011;50151;52.030;5.350;2023-05-10T14:19:22;11.15;;;6.18;;
63965;SDS011;50151;52.030;5.350;2023-05-10T14:21:49;10.82;;;6.22;;
63965;SDS011;50151;52.030;5.350;2023-05-10T14:24:15;13.82;;;6.63;;
63965;SDS011;50151;52.030;5.350;2023-05-10T14:26:42;12.05;;;6.35;;
63965;SDS011;50151;52.030;5.350;2023-05-10T14:29:09;11.15;;;6.45;;
63965;SDS011;50151;52.030;5.350;2023-05-10T14:31:37;15.93;;;6.45;;
63965;SDS011;50151;52.030;5.350;2023-05-10T14:34:04;12.93;;;6.18;;
63965;SDS011;50151;52.030;5.350;2023-05-10T14:36:31;11.52;;;6.57;;
63965;SDS011;50151;52.030;5.350;2023-05-10T14:38:58;12.70;;;6.82;;
63965;SDS011;50151;52.030;5.350;2023-05-10T14:41:25;12.27;;;7.18;;
63965;SDS011;50151;52.030;5.350;2023-05-10T14:43:52;11.23;;;6.65;;
63965;SDS011;50151;52.030;5.350;2023-05-10T14:46:19;12.75;;;7.07;;
63965;SDS011;50151;52.030;5.350;2023-05-10T14:48:45;10.95;;;6.72;;
63965;SDS011;50151;52.030;5.350;2023-05-10T14:51:12;11.82;;;6.40;;
63965;SDS011;50151;52.030;5.350;2023-05-10T14:53:39;12.50;;;7.28;;
63965;SDS011;50151;52.030;5.350;2023-05-10T14:56:06;11.07;;;6.70;;
63965;SDS011;50151;52.030;5.350;2023-05-10T14:58:33;11.20;;;7.00;;
63965;SDS011;50151;52.030;5.350;2023-05-10T15:01:00;12.95;;;7.15;;
63965;SDS011;50151;52.030;5.350;2023-05-10T15:03:27;11.65;;;6.68;;
63965;SDS011;50151;52.030;5.350;2023-05-10T15:05:54;14.38;;;6.82;;
63965;SDS011;50151;52.030;5.350;2023-05-10T15:08:23;13.35;;;7.65;;
63965;SDS011;50151;52.030;5.350;2023-05-10T15:10:51;12.65;;;7.30;;
63965;SDS011;50151;52.030;5.350;2023-05-10T15:13:17;14.45;;;7.43;;
63965;SDS011;50151;52.030;5.350;2023-05-10T15:15:44;12.13;;;6.97;;